sensor_id;sensor_type;location;lat;lon;timestamp;pressure;altitude;pressure_sealevel;temperature;humidity
74621;BME280;75998;47.550;19.254;2024-03-25T00:01:33;97953.31;;;1.45;86.56
74621;BME280;75998;47.550;19.254;2024-03-25T00:04:07;98197.13;;;2.87;85.54
74621;BME280;75998;47.550;19.254;2024-03-25T00:06:34;98147.44;;;2.48;85.65
74621;BME280;75998;47.550;19.254;2024-03-25T00:09:04;98175.53;;;2.72;85.85
74621;BME280;75998;47.550;19.254;2024-03-25T00:11:34;98199.66;;;2.88;85.65
74621;BME280;75998;47.550;19.254;2024-03-25T00:14:00;98070.97;;;2.14;85.12
74621;BME280;75998;47.550;19.254;2024-03-25T00:16:28;98161.59;;;2.58;85.30
74621;BME280;75998;47.550;19.254;2024-03-25T00:18:54;98054.59;;;1.98;84.67
74621;BME280;75998;47.550;19.254;2024-03-25T00:21:19;98199.25;;;2.96;84.26
74621;BME280;75998;47.550;19.254;2024-03-25T00:23:45;98004.22;;;1.75;84.22
74621;BME280;75998;47.550;19.254;2024-03-25T00:26:14;98051.19;;;2.15;83.96
74621;BME280;75998;47.550;19.254;2024-03-25T00:28:43;97930.38;;;1.40;84.49
74621;BME280;75998;47.550;19.254;2024-03-25T00:31:09;98157.41;;;2.73;84.59
74621;BME280;75998;47.550;19.254;2024-03-25T00:33:35;98189.94;;;2.93;84.83
74621;BME280;75998;47.550;19.254;2024-03-25T00:36:10;98119.28;;;2.45;84.06
74621;BME280;75998;47.550;19.254;2024-03-25T00:38:38;98054.25;;;2.05;84.58
74621;BME280;75998;47.550;19.254;2024-03-25T00:41:05;98094.09;;;2.33;84.33
74621;BME280;75998;47.550;19.254;2024-03-25T00:43:31;97993.19;;;1.73;84.54
74621;BME280;75998;47.550;19.254;2024-03-25T00:45:58;98112.38;;;2.46;84.32
74621;BME280;75998;47.550;19.254;2024-03-25T00:48:23;98180.59;;;2.91;84.38
74621;BME280;75998;47.550;19.254;2024-03-25T00:50:51;98175.38;;;2.92;84.42
74621;BME280;75998;47.550;19.254;2024-03-25T00:53:22;98159.06;;;2.92;83.95
74621;BME280;75998;47.550;19.254;2024-03-25T00:55:48;98178.16;;;3.05;83.89
74621;BME280;75998;47.550;19.254;2024-03-25T00:58:14;98164.72;;;2.98;83.43
74621;BME280;75998;47.550;19.254;2024-03-25T01:00:43;97992.50;;;1.86;83.13
74621;BME280;75998;47.550;19.254;2024-03-25T01:03:08;98118.50;;;2.61;83.35
74621;BME280;75998;47.550;19.254;2024-03-25T01:05:34;98179.88;;;3.04;83.46
74621;BME280;75998;47.550;19.254;2024-03-25T01:07:59;98124.78;;;2.72;83.38
74621;BME280;75998;47.550;19.254;2024-03-25T01:10:32;98195.16;;;3.09;83.46
74621;BME280;75998;47.550;19.254;2024-03-25T01:12:58;98054.97;;;2.25;82.60
74621;BME280;75998;47.550;19.254;2024-03-25T01:15:24;98195.81;;;3.13;83.17
74621;BME280;75998;47.550;19.254;2024-03-25T01:17:49;98201.13;;;3.10;83.30
74621;BME280;75998;47.550;19.254;2024-03-25T01:20:20;98126.16;;;2.62;82.98
74621;BME280;75998;47.550;19.254;2024-03-25T01:22:48;97990.06;;;1.83;83.36
74621;BME280;75998;47.550;19.254;2024-03-25T01:25:14;98112.91;;;2.52;83.47
74621;BME280;75998;47.550;19.254;2024-03-25T01:27:41;98183.00;;;2.94;84.26
74621;BME280;75998;47.550;19.254;2024-03-25T01:30:11;98180.44;;;2.94;83.72
74621;BME280;75998;47.550;19.254;2024-03-25T01:32:39;98108.72;;;2.50;83.56
74621;BME280;75998;47.550;19.254;2024-03-25T01:35:06;97922.34;;;1.29;83.33
74621;BME280;75998;47.550;19.254;2024-03-25T01:37:34;98189.78;;;2.96;83.62
74621;BME280;75998;47.550;19.254;2024-03-25T01:39:59;98109.66;;;2.49;83.61
74621;BME280;75998;47.550;19.254;2024-03-25T01:42:27;98184.16;;;3.05;83.40
74621;BME280;75998;47.550;19.254;2024-03-25T01:44:52;98149.03;;;2.86;83.09
74621;BME280;75998;47.550;19.254;2024-03-25T01:47:28;98182.97;;;3.11;82.75
74621;BME280;75998;47.550;19.254;2024-03-25T01:49:56;98184.47;;;2.99;83.14
74621;BME280;75998;47.550;19.254;2024-03-25T01:52:24;98112.50;;;2.60;82.90
74621;BME280;75998;47.550;19.254;2024-03-25T01:54:53;98172.22;;;3.03;82.91
74621;BME280;75998;47.550;19.254;2024-03-25T01:57:24;98000.59;;;1.96;83.03
74621;BME280;75998;47.550;19.254;2024-03-25T01:59:54;98084.78;;;2.30;83.09
74621;BME280;75998;47.550;19.254;2024-03-25T02:02:22;98082.41;;;2.43;83.36
74621;BME280;75998;47.550;19.254;2024-03-25T02:04:51;98039.22;;;2.14;82.79
74621;BME280;75998;47.550;19.254;2024-03-25T02:07:17;98071.59;;;2.19;83.22
74621;BME280;75998;47.550;19.254;2024-03-25T02:09:48;98140.16;;;2.74;83.74
74621;BME280;75998;47.550;19.254;2024-03-25T02:12:16;98096.81;;;2.47;83.52
74621;BME280;75998;47.550;19.254;2024-03-25T02:14:43;98167.84;;;2.88;83.14
74621;BME280;75998;47.550;19.254;2024-03-25T02:17:12;98034.53;;;2.04;82.66
74621;BME280;75998;47.550;19.254;2024-03-25T02:19:39;98012.78;;;1.93;82.86
74621;BME280;75998;47.550;19.254;2024-03-25T02:22:06;98027.19;;;1.97;83.13
74621;BME280;75998;47.550;19.254;2024-03-25T02:24:34;98174.06;;;2.83;83.10
74621;BME280;75998;47.550;19.254;2024-03-25T02:27:08;97930.66;;;1.34;82.86
74621;BME280;75998;47.550;19.254;2024-03-25T02:29:42;98125.03;;;2.50;83.39
74621;BME280;75998;47.550;19.254;2024-03-25T02:32:08;98169.53;;;2.89;83.38
74621;BME280;75998;47.550;19.254;2024-03-25T02:34:44;98169.06;;;2.80;83.17
74621;BME280;75998;47.550;19.254;2024-03-25T02:37:15;98173.84;;;2.88;83.61
74621;BME280;75998;47.550;19.254;2024-03-25T02:39:43;98180.06;;;2.84;83.54
74621;BME280;75998;47.550;19.254;2024-03-25T02:42:12;98144.22;;;2.62;83.48
74621;BME280;75998;47.550;19.254;2024-03-25T02:44:37;98172.84;;;2.91;83.63
74621;BME280;75998;47.550;19.254;2024-03-25T02:47:07;97931.88;;;1.45;83.02
74621;BME280;75998;47.550;19.254;2024-03-25T02:49:34;98176.44;;;2.88;83.35
74621;BME280;75998;47.550;19.254;2024-03-25T02:52:01;97887.78;;;0.99;83.22
74621;BME280;75998;47.550;19.254;2024-03-25T02:54:27;98042.16;;;1.88;82.91
74621;BME280;75998;47.550;19.254;2024-03-25T02:56:52;98068.63;;;2.09;83.21
74621;BME280;75998;47.550;19.254;2024-03-25T02:59:20;98112.38;;;2.46;83.32
74621;BME280;75998;47.550;19.254;2024-03-25T03:01:47;98171.81;;;2.77;83.51
74621;BME280;75998;47.550;19.254;2024-03-25T03:04:13;98170.22;;;2.75;83.41
74621;BME280;75998;47.550;19.254;2024-03-25T03:06:41;98058.63;;;2.03;83.62
74621;BME280;75998;47.550;19.254;2024-03-25T03:09:08;98151.94;;;2.62;83.21
74621;BME280;75998;47.550;19.254;2024-03-25T03:11:36;98128.66;;;2.46;83.54
74621;BME280;75998;47.550;19.254;2024-03-25T03:14:04;98088.56;;;2.23;83.03
74621;BME280;75998;47.550;19.254;2024-03-25T03:16:30;97972.88;;;1.49;83.38
74621;BME280;75998;47.550;19.254;2024-03-25T03:19:02;97997.06;;;1.45;83.06
74621;BME280;75998;47.550;19.254;2024-03-25T03:21:32;98010.56;;;1.68;83.11
74621;BME280;75998;47.550;19.254;2024-03-25T03:23:57;98197.69;;;2.76;83.57
74621;BME280;75998;47.550;19.254;2024-03-25T03:26:30;98052.78;;;1.82;83.84
74621;BME280;75998;47.550;19.254;2024-03-25T03:28:57;98053.09;;;1.76;83.68
74621;BME280;75998;47.550;19.254;2024-03-25T03:31:25;97944.75;;;1.45;83.13
74621;BME280;75998;47.550;19.254;2024-03-25T03:33:53;98015.22;;;1.96;82.96
74621;BME280;75998;47.550;19.254;2024-03-25T03:36:21;98183.25;;;2.89;82.84
74621;BME280;75998;47.550;19.254;2024-03-25T03:38:51;98195.66;;;3.16;82.91
74621;BME280;75998;47.550;19.254;2024-03-25T03:41:27;98199.75;;;3.20;83.00
74621;BME280;75998;47.550;19.254;2024-03-25T03:43:53;97938.78;;;1.44;83.14
74621;BME280;75998;47.550;19.254;2024-03-25T03:46:23;97898.03;;;1.17;82.96
74621;BME280;75998;47.550;19.254;2024-03-25T03:48:51;98208.19;;;3.06;82.74
74621;BME280;75998;47.550;19.254;2024-03-25T03:51:22;98212.81;;;3.17;83.54
74621;BME280;75998;47.550;19.254;2024-03-25T03:53:48;98212.13;;;3.13;82.80
74621;BME280;75998;47.550;19.254;2024-03-25T03:56:18;98097.13;;;2.58;82.22
74621;BME280;75998;47.550;19.254;2024-03-25T03:58:45;98050.19;;;2.52;82.48
74621;BME280;75998;47.550;19.254;2024-03-25T04:01:20;98081.50;;;2.62;82.50
74621;BME280;75998;47.550;19.254;2024-03-25T04:03:45;98200.63;;;3.36;82.87
74621;BME280;75998;47.550;19.254;2024-03-25T04:06:15;98204.56;;;3.43;82.08
74621;BME280;75998;47.550;19.254;2024-03-25T04:08:42;98003.69;;;2.20;81.95
74621;BME280;75998;47.550;19.254;2024-03-25T04:11:10;98176.72;;;3.33;81.92
74621;BME280;75998;47.550;19.254;2024-03-25T04:13:42;98166.91;;;3.06;83.00
74621;BME280;75998;47.550;19.254;2024-03-25T04:16:08;98236.72;;;3.53;83.06
74621;BME280;75998;47.550;19.254;2024-03-25T04:18:47;98183.94;;;3.26;81.57
74621;BME280;75998;47.550;19.254;2024-03-25T04:21:12;98191.91;;;3.39;82.25
74621;BME280;75998;47.550;19.254;2024-03-25T04:23:39;98167.19;;;3.17;81.89
74621;BME280;75998;47.550;19.254;2024-03-25T04:26:08;98204.72;;;3.40;82.23
74621;BME280;75998;47.550;19.254;2024-03-25T04:28:34;98245.41;;;3.52;82.54
74621;BME280;75998;47.550;19.254;2024-03-25T04:31:00;98208.22;;;3.39;82.20
74621;BME280;75998;47.550;19.254;2024-03-25T04:33:26;98230.56;;;3.56;82.43
74621;BME280;75998;47.550;19.254;2024-03-25T04:35:54;98221.31;;;3.52;82.10
74621;BME280;75998;47.550;19.254;2024-03-25T04:38:22;98217.75;;;3.55;81.98
74621;BME280;75998;47.550;19.254;2024-03-25T04:40:48;98198.47;;;3.44;82.30
74621;BME280;75998;47.550;19.254;2024-03-25T04:43:17;98242.84;;;3.68;82.15
74621;BME280;75998;47.550;19.254;2024-03-25T04:45:42;98242.03;;;3.68;82.00
74621;BME280;75998;47.550;19.254;2024-03-25T04:48:09;98152.09;;;3.10;81.77
74621;BME280;75998;47.550;19.254;2024-03-25T04:50:35;98237.75;;;3.67;81.65
74621;BME280;75998;47.550;19.254;2024-03-25T04:53:00;98115.78;;;2.97;81.44
74621;BME280;75998;47.550;19.254;2024-03-25T04:55:29;98222.25;;;3.67;81.54
74621;BME280;75998;47.550;19.254;2024-03-25T04:57:54;98074.59;;;2.62;80.96
74621;BME280;75998;47.550;19.254;2024-03-25T05:00:20;98084.13;;;2.93;80.91
74621;BME280;75998;47.550;19.254;2024-03-25T05:02:45;98112.56;;;3.09;80.72
74621;BME280;75998;47.550;19.254;2024-03-25T05:05:22;98134.75;;;3.29;80.90
74621;BME280;75998;47.550;19.254;2024-03-25T05:07:49;98207.78;;;3.64;80.55
74621;BME280;75998;47.550;19.254;2024-03-25T05:10:18;98246.28;;;4.00;81.44
74621;BME280;75998;47.550;19.254;2024-03-25T05:13:01;98251.44;;;4.00;81.21
74621;BME280;75998;47.550;19.254;2024-03-25T05:15:28;98160.44;;;3.48;81.23
74621;BME280;75998;47.550;19.254;2024-03-25T05:17:58;98242.19;;;3.96;81.16
74621;BME280;75998;47.550;19.254;2024-03-25T05:20:34;98251.13;;;3.91;81.15
74621;BME280;75998;47.550;19.254;2024-03-25T05:22:59;98267.31;;;4.10;81.41
74621;BME280;75998;47.550;19.254;2024-03-25T05:25:25;98282.75;;;4.12;80.97
74621;BME280;75998;47.550;19.254;2024-03-25T05:27:54;98117.09;;;3.21;80.99
74621;BME280;75998;47.550;19.254;2024-03-25T05:30:24;98266.91;;;4.18;80.96
74621;BME280;75998;47.550;19.254;2024-03-25T05:32:50;97974.72;;;2.32;80.11
74621;BME280;75998;47.550;19.254;2024-03-25T05:35:23;98282.00;;;4.26;80.25
74621;BME280;75998;47.550;19.254;2024-03-25T05:37:50;98256.41;;;4.05;80.11
74621;BME280;75998;47.550;19.254;2024-03-25T05:40:21;98180.09;;;3.66;80.55
74621;BME280;75998;47.550;19.254;2024-03-25T05:42:50;98236.44;;;4.07;80.14
74621;BME280;75998;47.550;19.254;2024-03-25T05:45:18;98251.44;;;4.00;79.79
74621;BME280;75998;47.550;19.254;2024-03-25T05:47:47;98239.63;;;4.12;80.27
74621;BME280;75998;47.550;19.254;2024-03-25T05:50:12;98303.75;;;4.53;80.16
74621;BME280;75998;47.550;19.254;2024-03-25T05:52:51;98291.41;;;4.58;79.72
74621;BME280;75998;47.550;19.254;2024-03-25T05:55:22;98284.03;;;4.66;79.75
74621;BME280;75998;47.550;19.254;2024-03-25T05:57:51;98292.25;;;4.89;79.59
74621;BME280;75998;47.550;19.254;2024-03-25T06:00:20;98251.00;;;4.71;79.03
74621;BME280;75998;47.550;19.254;2024-03-25T06:02:49;98211.28;;;4.57;79.08
74621;BME280;75998;47.550;19.254;2024-03-25T06:05:14;98127.31;;;4.18;78.64
74621;BME280;75998;47.550;19.254;2024-03-25T06:07:43;98240.66;;;4.86;78.15
74621;BME280;75998;47.550;19.254;2024-03-25T06:10:08;98098.56;;;4.08;78.88
74621;BME280;75998;47.550;19.254;2024-03-25T06:12:34;98106.16;;;3.95;78.17
74621;BME280;75998;47.550;19.254;2024-03-25T06:15:02;98159.44;;;4.44;79.06
74621;BME280;75998;47.550;19.254;2024-03-25T06:17:28;98196.63;;;4.57;78.59
74621;BME280;75998;47.550;19.254;2024-03-25T06:19:54;98048.69;;;3.60;77.92
74621;BME280;75998;47.550;19.254;2024-03-25T06:22:29;98243.91;;;4.89;78.83
74621;BME280;75998;47.550;19.254;2024-03-25T06:24:59;98047.63;;;3.64;78.87
74621;BME280;75998;47.550;19.254;2024-03-25T06:27:27;98065.63;;;3.96;79.48
74621;BME280;75998;47.550;19.254;2024-03-25T06:29:55;98095.72;;;4.27;78.84
74621;BME280;75998;47.550;19.254;2024-03-25T06:32:41;98118.53;;;4.51;78.94
74621;BME280;75998;47.550;19.254;2024-03-25T06:35:25;98307.75;;;5.94;79.32
74621;BME280;75998;47.550;19.254;2024-03-25T06:37:54;98315.97;;;6.00;78.36
74621;BME280;75998;47.550;19.254;2024-03-25T06:40:22;98267.16;;;5.78;78.18
74621;BME280;75998;47.550;19.254;2024-03-25T06:42:48;98157.16;;;5.27;77.55
74621;BME280;75998;47.550;19.254;2024-03-25T06:45:19;98240.50;;;5.76;77.52
74621;BME280;75998;47.550;19.254;2024-03-25T06:47:45;98301.72;;;6.49;76.65
74621;BME280;75998;47.550;19.254;2024-03-25T06:50:10;98080.41;;;4.97;74.09
74621;BME280;75998;47.550;19.254;2024-03-25T06:52:39;98145.97;;;5.96;75.86
74621;BME280;75998;47.550;19.254;2024-03-25T06:55:05;98277.97;;;6.82;73.51
74621;BME280;75998;47.550;19.254;2024-03-25T06:57:40;98041.72;;;5.37;73.21
74621;BME280;75998;47.550;19.254;2024-03-25T07:00:09;97956.56;;;5.18;72.81
74621;BME280;75998;47.550;19.254;2024-03-25T07:02:41;98191.38;;;6.83;73.03
74621;BME280;75998;47.550;19.254;2024-03-25T07:05:07;98320.06;;;7.40;72.95
74621;BME280;75998;47.550;19.254;2024-03-25T07:07:35;98314.16;;;7.50;72.27
74621;BME280;75998;47.550;19.254;2024-03-25T07:10:01;98235.06;;;6.76;72.87
74621;BME280;75998;47.550;19.254;2024-03-25T07:12:27;98259.13;;;6.66;72.56
74621;BME280;75998;47.550;19.254;2024-03-25T07:14:53;98319.97;;;7.01;74.09
74621;BME280;75998;47.550;19.254;2024-03-25T07:17:18;98223.88;;;6.76;73.10
74621;BME280;75998;47.550;19.254;2024-03-25T07:19:46;98306.97;;;7.41;72.51
74621;BME280;75998;47.550;19.254;2024-03-25T07:22:11;98193.44;;;6.91;72.12
74621;BME280;75998;47.550;19.254;2024-03-25T07:24:37;98167.03;;;6.71;69.62
74621;BME280;75998;47.550;19.254;2024-03-25T07:27:05;98153.88;;;7.00;69.17
74621;BME280;75998;47.550;19.254;2024-03-25T07:29:31;98138.59;;;6.95;69.53
74621;BME280;75998;47.550;19.254;2024-03-25T07:31:57;98261.75;;;7.82;68.35
74621;BME280;75998;47.550;19.254;2024-03-25T07:34:22;98174.00;;;7.60;67.04
74621;BME280;75998;47.550;19.254;2024-03-25T07:36:49;98083.53;;;7.16;66.18
74621;BME280;75998;47.550;19.254;2024-03-25T07:39:17;98325.50;;;8.63;67.44
74621;BME280;75998;47.550;19.254;2024-03-25T07:41:43;98255.16;;;8.02;66.42
74621;BME280;75998;47.550;19.254;2024-03-25T07:44:08;98139.34;;;7.10;66.02
74621;BME280;75998;47.550;19.254;2024-03-25T07:46:34;98303.22;;;7.96;65.74
74621;BME280;75998;47.550;19.254;2024-03-25T07:48:59;98154.50;;;7.03;66.44
74621;BME280;75998;47.550;19.254;2024-03-25T07:51:27;98163.84;;;6.93;65.04
74621;BME280;75998;47.550;19.254;2024-03-25T07:53:53;98223.03;;;6.88;66.49
74621;BME280;75998;47.550;19.254;2024-03-25T07:56:19;98168.81;;;6.83;66.61
74621;BME280;75998;47.550;19.254;2024-03-25T07:58:44;98195.72;;;7.59;65.54
74621;BME280;75998;47.550;19.254;2024-03-25T08:01:10;98299.56;;;8.61;65.51
74621;BME280;75998;47.550;19.254;2024-03-25T08:03:36;98189.00;;;7.93;62.18
74621;BME280;75998;47.550;19.254;2024-03-25T08:06:01;98331.53;;;9.47;63.65
74621;BME280;75998;47.550;19.254;2024-03-25T08:08:27;98186.06;;;8.70;61.91
74621;BME280;75998;47.550;19.254;2024-03-25T08:10:56;98225.81;;;8.61;61.25
74621;BME280;75998;47.550;19.254;2024-03-25T08:13:24;98218.25;;;8.21;62.69
74621;BME280;75998;47.550;19.254;2024-03-25T08:15:52;98289.97;;;8.38;62.59
74621;BME280;75998;47.550;19.254;2024-03-25T08:18:20;98316.59;;;8.78;62.47
74621;BME280;75998;47.550;19.254;2024-03-25T08:20:48;98338.50;;;9.35;61.46
74621;BME280;75998;47.550;19.254;2024-03-25T08:23:13;98247.41;;;8.98;60.33
74621;BME280;75998;47.550;19.254;2024-03-25T08:25:42;98340.16;;;9.36;60.70
74621;BME280;75998;47.550;19.254;2024-03-25T08:28:07;98227.69;;;8.35;59.50
74621;BME280;75998;47.550;19.254;2024-03-25T08:30:33;98343.25;;;9.41;59.60
74621;BME280;75998;47.550;19.254;2024-03-25T08:33:04;98192.69;;;9.09;59.07
74621;BME280;75998;47.550;19.254;2024-03-25T08:35:32;98328.66;;;10.07;58.59
74621;BME280;75998;47.550;19.254;2024-03-25T08:37:58;98327.19;;;9.58;57.78
74621;BME280;75998;47.550;19.254;2024-03-25T08:40:25;98145.50;;;7.95;58.67
74621;BME280;75998;47.550;19.254;2024-03-25T08:42:50;98285.03;;;8.70;59.37
74621;BME280;75998;47.550;19.254;2024-03-25T08:45:16;98071.78;;;7.84;58.82
74621;BME280;75998;47.550;19.254;2024-03-25T08:47:42;98219.41;;;9.35;56.97
74621;BME280;75998;47.550;19.254;2024-03-25T08:50:08;98259.25;;;9.49;57.71
74621;BME280;75998;47.550;19.254;2024-03-25T08:52:34;98335.06;;;10.15;58.46
74621;BME280;75998;47.550;19.254;2024-03-25T08:54:59;98336.25;;;10.22;57.54
74621;BME280;75998;47.550;19.254;2024-03-25T08:57:27;98275.59;;;9.62;58.88
74621;BME280;75998;47.550;19.254;2024-03-25T08:59:53;98249.13;;;9.33;56.11
74621;BME280;75998;47.550;19.254;2024-03-25T09:02:25;98176.97;;;9.11;56.22
74621;BME280;75998;47.550;19.254;2024-03-25T09:04:59;98346.00;;;10.53;56.70
74621;BME280;75998;47.550;19.254;2024-03-25T09:07:28;98304.09;;;10.21;55.34
74621;BME280;75998;47.550;19.254;2024-03-25T09:09:58;98302.09;;;9.91;55.28
74621;BME280;75998;47.550;19.254;2024-03-25T09:12:43;98174.47;;;9.65;55.99
74621;BME280;75998;47.550;19.254;2024-03-25T09:15:13;98336.34;;;10.76;54.47
74621;BME280;75998;47.550;19.254;2024-03-25T09:17:40;98190.84;;;9.90;54.34
74621;BME280;75998;47.550;19.254;2024-03-25T09:20:08;98329.19;;;10.78;54.12
74621;BME280;75998;47.550;19.254;2024-03-25T09:22:46;98072.59;;;8.90;54.78
74621;BME280;75998;47.550;19.254;2024-03-25T09:25:15;98134.69;;;10.07;52.64
74621;BME280;75998;47.550;19.254;2024-03-25T09:27:45;98182.00;;;10.14;52.85
74621;BME280;75998;47.550;19.254;2024-03-25T09:30:10;98281.91;;;10.81;52.85
74621;BME280;75998;47.550;19.254;2024-03-25T09:32:36;98327.41;;;11.11;52.19
74621;BME280;75998;47.550;19.254;2024-03-25T09:35:04;98333.63;;;10.55;53.18
74621;BME280;75998;47.550;19.254;2024-03-25T09:37:30;98216.19;;;9.32;56.02
74621;BME280;75998;47.550;19.254;2024-03-25T09:39:58;98169.06;;;8.77;58.47
74621;BME280;75998;47.550;19.254;2024-03-25T09:42:31;98212.75;;;7.89;61.95
74621;BME280;75998;47.550;19.254;2024-03-25T09:44:58;98293.16;;;7.92;65.69
74621;BME280;75998;47.550;19.254;2024-03-25T09:47:24;98357.31;;;8.17;67.12
74621;BME280;75998;47.550;19.254;2024-03-25T09:49:51;98350.13;;;8.33;67.29
74621;BME280;75998;47.550;19.254;2024-03-25T09:52:19;98354.34;;;9.21;65.96
74621;BME280;75998;47.550;19.254;2024-03-25T09:54:50;98264.41;;;9.26;65.23
74621;BME280;75998;47.550;19.254;2024-03-25T09:57:16;98200.34;;;9.57;64.66
74621;BME280;75998;47.550;19.254;2024-03-25T09:59:44;98334.91;;;11.37;62.76
74621;BME280;75998;47.550;19.254;2024-03-25T10:02:15;98142.66;;;9.94;59.08
74621;BME280;75998;47.550;19.254;2024-03-25T10:04:50;98331.44;;;11.15;58.86
74621;BME280;75998;47.550;19.254;2024-03-25T10:07:22;98284.38;;;10.40;60.76
74621;BME280;75998;47.550;19.254;2024-03-25T10:09:49;98342.94;;;10.37;60.06
74621;BME280;75998;47.550;19.254;2024-03-25T10:12:18;98308.22;;;9.79;56.65
74621;BME280;75998;47.550;19.254;2024-03-25T10:14:43;98220.84;;;8.93;57.13
74621;BME280;75998;47.550;19.254;2024-03-25T10:17:09;98292.41;;;9.35;58.10
74621;BME280;75998;47.550;19.254;2024-03-25T10:19:40;98338.84;;;9.77;57.77
74621;BME280;75998;47.550;19.254;2024-03-25T10:22:12;98214.81;;;9.61;57.27
74621;BME280;75998;47.550;19.254;2024-03-25T10:24:41;98341.53;;;10.88;56.59
74621;BME280;75998;47.550;19.254;2024-03-25T10:27:25;98311.97;;;10.76;55.18
74621;BME280;75998;47.550;19.254;2024-03-25T10:29:56;98215.41;;;10.42;54.23
74621;BME280;75998;47.550;19.254;2024-03-25T10:32:28;98266.19;;;10.61;53.36
74621;BME280;75998;47.550;19.254;2024-03-25T10:34:54;98270.25;;;10.86;52.10
74621;BME280;75998;47.550;19.254;2024-03-25T10:37:21;98320.19;;;11.36;52.91
74621;BME280;75998;47.550;19.254;2024-03-25T10:39:51;98309.59;;;11.79;51.84
74621;BME280;75998;47.550;19.254;2024-03-25T10:42:20;98185.63;;;11.49;51.80
74621;BME280;75998;47.550;19.254;2024-03-25T10:44:49;98173.53;;;11.27;50.47
74621;BME280;75998;47.550;19.254;2024-03-25T10:47:19;98264.06;;;12.51;50.11
74621;BME280;75998;47.550;19.254;2024-03-25T10:52:18;98169.31;;;10.09;51.36
74621;BME280;75998;47.550;19.254;2024-03-25T10:54:46;98289.53;;;10.30;53.84
74621;BME280;75998;47.550;19.254;2024-03-25T10:57:13;98323.78;;;10.48;53.49
74621;BME280;75998;47.550;19.254;2024-03-25T10:59:42;98257.09;;;10.32;53.60
74621;BME280;75998;47.550;19.254;2024-03-25T11:02:11;98273.81;;;10.19;52.54
74621;BME280;75998;47.550;19.254;2024-03-25T11:04:38;98165.13;;;9.52;53.52
74621;BME280;75998;47.550;19.254;2024-03-25T11:07:08;98145.22;;;9.62;53.08
74621;BME280;75998;47.550;19.254;2024-03-25T11:09:36;98153.22;;;10.04;53.24
74621;BME280;75998;47.550;19.254;2024-03-25T11:12:03;98307.06;;;10.82;51.69
74621;BME280;75998;47.550;19.254;2024-03-25T11:14:34;98152.97;;;10.71;51.82
74621;BME280;75998;47.550;19.254;2024-03-25T11:17:01;98287.56;;;11.61;49.78
74621;BME280;75998;47.550;19.254;2024-03-25T11:19:29;98245.53;;;11.11;50.22
74621;BME280;75998;47.550;19.254;2024-03-25T11:22:23;98307.06;;;11.77;50.23
74621;BME280;75998;47.550;19.254;2024-03-25T11:24:54;98147.31;;;9.79;51.15
74621;BME280;75998;47.550;19.254;2024-03-25T11:27:27;98326.63;;;10.00;54.86
74621;BME280;75998;47.550;19.254;2024-03-25T11:29:55;98323.06;;;8.73;58.89
74621;BME280;75998;47.550;19.254;2024-03-25T11:32:20;98305.13;;;8.44;60.66
74621;BME280;75998;47.550;19.254;2024-03-25T11:34:50;98339.59;;;8.84;63.28
74621;BME280;75998;47.550;19.254;2024-03-25T11:37:18;98239.25;;;8.31;62.58
74621;BME280;75998;47.550;19.254;2024-03-25T11:39:45;98335.78;;;9.01;62.37
74621;BME280;75998;47.550;19.254;2024-03-25T11:42:12;98205.84;;;8.61;61.47
74621;BME280;75998;47.550;19.254;2024-03-25T11:44:40;98203.66;;;9.59;60.77
74621;BME280;75998;47.550;19.254;2024-03-25T11:47:13;98340.25;;;10.71;59.16
74621;BME280;75998;47.550;19.254;2024-03-25T11:49:40;98275.72;;;9.49;59.55
74621;BME280;75998;47.550;19.254;2024-03-25T11:52:08;98332.56;;;8.61;63.92
74621;BME280;75998;47.550;19.254;2024-03-25T11:54:33;98297.00;;;7.61;69.64
74621;BME280;75998;47.550;19.254;2024-03-25T11:57:00;98358.88;;;7.94;68.21
74621;BME280;75998;47.550;19.254;2024-03-25T11:59:27;98343.94;;;7.72;71.25
74621;BME280;75998;47.550;19.254;2024-03-25T12:02:01;98354.94;;;7.75;71.47
74621;BME280;75998;47.550;19.254;2024-03-25T12:04:34;98360.66;;;7.93;70.87
74621;BME280;75998;47.550;19.254;2024-03-25T12:06:59;98340.53;;;8.21;70.71
74621;BME280;75998;47.550;19.254;2024-03-25T12:09:25;98247.16;;;8.66;71.65
74621;BME280;75998;47.550;19.254;2024-03-25T12:12:09;98344.19;;;10.09;69.90
74621;BME280;75998;47.550;19.254;2024-03-25T12:14:34;98274.03;;;9.37;68.04
74621;BME280;75998;47.550;19.254;2024-03-25T12:17:00;98302.91;;;9.80;65.19
74621;BME280;75998;47.550;19.254;2024-03-25T12:19:29;98326.75;;;9.98;62.01
74621;BME280;75998;47.550;19.254;2024-03-25T12:22:04;98277.75;;;10.35;61.29
74621;BME280;75998;47.550;19.254;2024-03-25T12:24:42;98161.47;;;9.21;61.74
74621;BME280;75998;47.550;19.254;2024-03-25T12:27:21;98259.09;;;9.50;62.53
74621;BME280;75998;47.550;19.254;2024-03-25T12:30:01;98104.28;;;8.37;63.49
74621;BME280;75998;47.550;19.254;2024-03-25T12:32:43;98192.22;;;8.58;64.98
74621;BME280;75998;47.550;19.254;2024-03-25T12:35:14;98267.25;;;8.64;63.30
74621;BME280;75998;47.550;19.254;2024-03-25T12:37:56;98307.34;;;9.09;62.01
74621;BME280;75998;47.550;19.254;2024-03-25T12:40:28;98225.28;;;8.68;62.91
74621;BME280;75998;47.550;19.254;2024-03-25T12:42:59;98352.03;;;9.98;64.56
74621;BME280;75998;47.550;19.254;2024-03-25T12:45:25;98246.69;;;9.65;60.12
74621;BME280;75998;47.550;19.254;2024-03-25T12:47:50;98240.75;;;9.85;60.03
74621;BME280;75998;47.550;19.254;2024-03-25T12:50:16;98273.47;;;9.56;59.75
74621;BME280;75998;47.550;19.254;2024-03-25T12:52:42;98235.66;;;9.04;60.78
74621;BME280;75998;47.550;19.254;2024-03-25T12:55:07;98187.06;;;8.45;58.91
74621;BME280;75998;47.550;19.254;2024-03-25T12:57:34;98349.78;;;9.47;59.89
74621;BME280;75998;47.550;19.254;2024-03-25T13:00:04;98286.09;;;8.91;60.24
74621;BME280;75998;47.550;19.254;2024-03-25T13:02:30;98213.53;;;8.98;59.27
74621;BME280;75998;47.550;19.254;2024-03-25T13:04:59;98214.91;;;9.71;57.56
74621;BME280;75998;47.550;19.254;2024-03-25T13:07:25;98355.59;;;10.64;56.79
74621;BME280;75998;47.550;19.254;2024-03-25T13:09:50;98190.38;;;9.74;55.38